Terminal Aerodrome Forecast
Issued by NWS Caribou, ME

Home | Current Version | Previous Version | Text Only | Print | Product List | Glossary On
Versions: 1 2 3 4 5 6 7 8 9 10 11 12 13
000
FTUS41 KCAR 250520
TAFBGR
TAF
KBGR 250520Z 2506/2606 21010KT P6SM FEW070 BKN100
     FM250900 23009KT P6SM SCT080 WS020/26035KT
     FM251200 26009KT P6SM SCT120
     FM251500 26013G24KT P6SM SCT060
     FM252300 26011KT P6SM SCT070=

USA.gov is the U.S. government's official web portal to all federal, state and local government web resources and services.